Time;durP1;ratioP1;P1;durP2;ratioP2;P2;SDS_P1;SDS_P2;PMS_P1;PMS_P2;Temp;Humidity;BMP_temperature;BMP_pressure;BME280_temperature;BME280_humidity;BME280_pressure;Samples;Min_cycle;Max_cycle;Signal;HPM_P1;HPM_P2
2022/04/07 00:02:11;;;;;;;7.47;4.53;;;9.80;99.90;;;;;;5015853;28;20218;-84
2022/04/07 00:04:37;;;;;;;5.77;4.43;;;9.80;99.90;;;;;;5015994;28;20205;-85
2022/04/07 00:07:03;;;;;;;4.90;4.40;;;9.90;99.90;;;;;;5016177;28;20173;-82
2022/04/07 00:09:29;;;;;;;9.40;5.50;;;9.80;99.90;;;;;;5016548;28;20283;-83
2022/04/07 00:11:54;;;;;;;7.00;5.03;;;9.80;99.90;;;;;;5015865;28;20647;-83
2022/04/07 00:14:20;;;;;;;5.80;4.13;;;9.80;99.90;;;;;;5015598;28;20202;-83
2022/04/07 00:16:46;;;;;;;7.90;4.83;;;9.80;99.90;;;;;;5036191;22;20704;-79
2022/04/07 00:19:11;;;;;;;6.83;5.03;;;9.80;99.90;;;;;;5031030;28;20185;-79
2022/04/07 00:21:38;;;;;;;7.80;5.00;;;9.90;99.90;;;;;;5032872;28;20197;-79
2022/04/07 00:24:05;;;;;;;8.07;5.27;;;9.90;99.90;;;;;;5030845;28;20186;-79
2022/04/07 00:26:31;;;;;;;6.20;5.13;;;9.90;99.90;;;;;;5033121;28;20166;-78
2022/04/07 00:28:57;;;;;;;9.40;5.50;;;9.90;99.90;;;;;;5045268;22;20247;-80
2022/04/07 00:31:23;;;;;;;9.90;5.70;;;9.80;99.90;;;;;;5037213;28;20176;-80
2022/04/07 00:33:49;;;;;;;8.03;5.33;;;9.90;99.90;;;;;;5036765;28;20173;-81
2022/04/07 00:36:14;;;;;;;7.10;4.90;;;9.90;99.90;;;;;;5036843;28;20192;-80
2022/04/07 00:38:40;;;;;;;5.30;4.80;;;9.90;99.90;;;;;;5036539;28;20525;-79
2022/04/07 00:41:06;;;;;;;8.43;5.33;;;9.80;99.90;;;;;;5035404;28;20612;-81
2022/04/07 00:43:33;;;;;;;8.23;5.37;;;9.80;99.90;;;;;;5041137;28;20650;-79
2022/04/07 00:46:00;;;;;;;6.60;5.63;;;9.90;99.90;;;;;;5042039;28;20233;-80
2022/04/07 00:48:27;;;;;;;7.97;5.53;;;9.90;99.90;;;;;;5041916;28;20170;-80
2022/04/07 00:50:54;;;;;;;8.87;5.87;;;9.90;99.90;;;;;;5041830;28;20201;-81
2022/04/07 00:53:20;;;;;;;9.57;6.07;;;9.90;99.90;;;;;;5041973;28;20209;-80
2022/04/07 00:55:48;;;;;;;8.80;6.17;;;9.80;99.90;;;;;;5041431;28;20672;-81
2022/04/07 00:58:14;;;;;;;8.10;5.77;;;9.90;99.90;;;;;;5041410;28;20669;-80
2022/04/07 01:00:40;;;;;;;7.73;5.50;;;9.80;99.90;;;;;;5040405;28;20217;-80
2022/04/07 01:03:07;;;;;;;6.37;5.67;;;9.80;99.90;;;;;;5040400;28;20685;-80
2022/04/07 01:05:33;;;;;;;9.87;6.63;;;9.90;99.90;;;;;;5039263;28;20204;-81
2022/04/07 01:07:59;;;;;;;12.67;6.63;;;9.90;99.90;;;;;;5039914;28;20175;-81
2022/04/07 01:10:26;;;;;;;7.53;5.87;;;9.90;99.90;;;;;;5039833;28;20193;-80
2022/04/07 01:12:51;;;;;;;9.10;5.50;;;9.90;99.90;;;;;;5039119;28;20169;-81
2022/04/07 01:15:17;;;;;;;6.87;5.00;;;9.90;99.90;;;;;;5040091;28;20193;-81
2022/04/07 01:17:43;;;;;;;6.00;4.60;;;9.90;99.90;;;;;;5039980;28;20180;-81
2022/04/07 01:20:10;;;;;;;6.80;5.27;;;9.90;99.90;;;;;;5039524;28;20257;-81
2022/04/07 01:22:40;;;;;;;6.73;4.63;;;9.90;99.90;;;;;;5039101;28;20181;-80
2022/04/07 01:25:07;;;;;;;8.93;3.90;;;9.90;99.90;;;;;;5039815;28;20200;-81
2022/04/07 01:27:33;;;;;;;7.37;3.30;;;9.90;99.90;;;;;;5039149;28;20175;-80
2022/04/07 01:30:08;;;;;;;9.57;3.80;;;9.90;99.90;;;;;;5040680;28;20225;-80
2022/04/07 01:32:41;;;;;;;8.87;4.03;;;9.90;99.90;;;;;;5040537;28;20176;-80
2022/04/07 01:35:08;;;;;;;8.00;3.60;;;9.90;99.90;;;;;;5039846;28;20169;-80
2022/04/07 01:37:35;;;;;;;9.13;3.70;;;9.90;99.90;;;;;;5039529;28;20173;-81
2022/04/07 01:40:02;;;;;;;5.70;3.50;;;9.90;99.90;;;;;;5037880;28;20270;-80
2022/04/07 01:42:28;;;;;;;7.77;4.07;;;9.90;99.90;;;;;;5037000;28;20201;-80
2022/04/07 01:44:57;;;;;;;6.07;4.07;;;9.80;99.90;;;;;;5036575;28;20674;-79
2022/04/07 01:47:24;;;;;;;4.17;3.77;;;9.80;99.90;;;;;;5021602;28;20613;-79
2022/04/07 01:49:58;;;;;;;5.50;4.00;;;9.80;99.90;;;;;;5037462;28;20193;-79
2022/04/07 01:52:25;;;;;;;4.17;3.77;;;9.80;99.90;;;;;;5037945;28;20179;-79
2022/04/07 01:54:52;;;;;;;6.63;4.20;;;9.80;99.90;;;;;;5039095;28;20234;-79
2022/04/07 01:57:23;;;;;;;7.40;4.13;;;9.90;99.90;;;;;;5038123;28;20187;-80
2022/04/07 01:59:51;;;;;;;5.90;4.10;;;9.80;99.90;;;;;;5037101;28;20245;-79
2022/04/07 02:02:16;;;;;;;7.57;4.00;;;9.80;99.90;;;;;;5036682;28;20183;-79
2022/04/07 02:05:03;;;;;;;6.83;4.07;;;9.80;99.90;;;;;;5036460;28;20207;-79
2022/04/07 02:07:32;;;;;;;6.03;4.00;;;9.80;99.90;;;;;;5037149;28;20173;-80
2022/04/07 02:09:59;;;;;;;5.67;3.70;;;9.80;99.90;;;;;;5036977;28;20194;-80
2022/04/07 02:12:29;;;;;;;3.97;3.47;;;9.80;99.90;;;;;;5036240;28;20592;-80
2022/04/07 02:14:55;;;;;;;5.73;3.83;;;9.80;99.90;;;;;;5036386;28;20183;-80
2022/04/07 02:17:22;;;;;;;6.17;4.33;;;9.80;99.90;;;;;;5036477;28;20173;-79
2022/04/07 02:19:50;;;;;;;6.90;3.70;;;9.70;99.90;;;;;;5037534;28;20255;-80
2022/04/07 02:22:15;;;;;;;5.20;3.07;;;9.80;99.90;;;;;;5037365;28;20192;-79
2022/04/07 02:24:41;;;;;;;10.43;3.10;;;9.90;99.90;;;;;;5037440;28;20664;-79
2022/04/07 02:27:08;;;;;;;4.97;2.60;;;9.70;99.90;;;;;;5037174;28;20171;-79
2022/04/07 02:29:34;;;;;;;6.60;2.70;;;9.60;99.90;;;;;;5036579;28;20244;-79
2022/04/07 02:32:00;;;;;;;5.17;2.87;;;9.50;99.90;;;;;;5037980;28;20203;-80
2022/04/07 02:34:26;;;;;;;5.63;2.90;;;9.50;99.90;;;;;;5038286;28;20184;-80
2022/04/07 02:36:52;;;;;;;8.03;3.20;;;9.40;99.90;;;;;;5038182;28;20663;-80
2022/04/07 02:39:17;;;;;;;7.07;3.20;;;9.40;99.90;;;;;;5040911;28;20675;-80
2022/04/07 02:41:43;;;;;;;11.40;3.60;;;9.30;99.90;;;;;;5042207;28;20177;-80
2022/04/07 02:44:08;;;;;;;9.20;3.43;;;9.40;99.90;;;;;;5041998;28;20223;-80
2022/04/07 02:46:34;;;;;;;8.03;3.47;;;9.30;99.90;;;;;;5041350;28;20639;-81
2022/04/07 02:48:59;;;;;;;5.77;2.87;;;9.40;99.90;;;;;;5040578;28;20247;-80
2022/04/07 02:51:26;;;;;;;3.30;2.43;;;9.40;99.90;;;;;;5043105;28;20207;-80
2022/04/07 02:53:57;;;;;;;9.73;2.80;;;9.40;99.90;;;;;;5042305;28;20711;-80
2022/04/07 02:56:24;;;;;;;11.17;3.37;;;9.40;99.90;;;;;;5041771;28;20188;-79
2022/04/07 02:58:49;;;;;;;5.67;3.40;;;9.40;99.90;;;;;;5042139;28;20234;-80
2022/04/07 03:01:15;;;;;;;5.60;3.47;;;9.30;99.90;;;;;;5041139;28;20165;-80
2022/04/07 03:03:41;;;;;;;4.37;3.30;;;9.30;99.90;;;;;;5042766;28;20173;-80
2022/04/07 03:06:06;;;;;;;6.27;3.50;;;9.30;99.90;;;;;;5041669;28;20214;-80
2022/04/07 03:08:35;;;;;;;6.00;3.23;;;9.30;99.90;;;;;;5042745;28;20181;-81
2022/04/07 03:11:02;;;;;;;5.77;3.40;;;9.30;99.90;;;;;;5041298;28;20617;-80
2022/04/07 03:13:27;;;;;;;5.00;2.90;;;9.30;99.90;;;;;;5041585;28;20181;-80
2022/04/07 03:15:53;;;;;;;8.30;3.20;;;9.40;99.90;;;;;;5041771;28;20669;-80
2022/04/07 03:18:19;;;;;;;8.67;3.40;;;9.40;99.90;;;;;;5041456;28;20277;-80
2022/04/07 03:20:45;;;;;;;7.93;3.10;;;9.40;99.90;;;;;;5041469;28;20268;-79
2022/04/07 03:23:11;;;;;;;4.53;2.93;;;9.50;99.90;;;;;;5040821;28;20722;-80
2022/04/07 03:25:37;;;;;;;6.83;2.80;;;9.50;99.90;;;;;;5041767;28;20556;-80
2022/04/07 03:28:04;;;;;;;6.47;2.77;;;9.60;99.90;;;;;;5039992;28;20267;-80
2022/04/07 03:30:29;;;;;;;5.53;2.40;;;9.60;99.90;;;;;;5040114;28;20275;-80
2022/04/07 03:32:55;;;;;;;5.67;2.97;;;9.60;99.90;;;;;;5040553;28;20695;-80
2022/04/07 03:35:21;;;;;;;5.53;2.73;;;9.60;99.90;;;;;;5040860;28;20177;-80
2022/04/07 03:37:46;;;;;;;8.03;2.67;;;9.60;99.90;;;;;;5040541;28;20177;-80
2022/04/07 03:40:12;;;;;;;4.57;2.20;;;9.60;99.90;;;;;;5038323;28;20744;-80
2022/04/07 03:42:38;;;;;;;4.57;2.30;;;9.60;99.90;;;;;;5038738;28;20200;-79
2022/04/07 03:45:05;;;;;;;2.77;1.93;;;9.70;99.90;;;;;;5038549;28;20201;-80
2022/04/07 03:47:31;;;;;;;5.60;2.37;;;9.60;99.90;;;;;;5039039;28;20618;-81
2022/04/07 03:49:57;;;;;;;7.20;2.70;;;9.60;99.90;;;;;;5037861;28;20189;-79
2022/04/07 03:52:23;;;;;;;3.40;2.13;;;9.70;99.90;;;;;;5038778;28;20664;-81
2022/04/07 03:54:49;;;;;;;7.37;2.53;;;9.60;99.90;;;;;;5038621;28;20652;-80
2022/04/07 03:57:15;;;;;;;4.83;3.10;;;9.60;99.90;;;;;;5039290;28;20205;-80
2022/04/07 03:59:42;;;;;;;3.47;2.73;;;9.80;99.90;;;;;;5039112;28;20208;-80
2022/04/07 04:02:10;;;;;;;6.70;2.30;;;9.80;99.90;;;;;;5039144;28;20227;-81
2022/04/07 04:04:39;;;;;;;5.03;2.70;;;9.80;99.90;;;;;;5040125;28;20269;-80
2022/04/07 04:07:04;;;;;;;5.90;2.93;;;9.80;99.90;;;;;;5039665;28;20206;-81
2022/04/07 04:09:31;;;;;;;8.83;3.07;;;9.80;99.90;;;;;;5038367;28;20215;-81
2022/04/07 04:11:57;;;;;;;7.40;3.13;;;9.80;99.90;;;;;;5038181;28;20176;-80
2022/04/07 04:14:22;;;;;;;5.20;2.97;;;9.90;99.90;;;;;;5037278;28;20181;-80
2022/04/07 04:16:48;;;;;;;3.87;3.47;;;9.90;99.90;;;;;;5037584;28;20264;-80
2022/04/07 04:19:14;;;;;;;7.90;3.57;;;9.90;99.90;;;;;;5037315;28;20199;-80
2022/04/07 04:21:39;;;;;;;8.67;2.93;;;9.90;99.90;;;;;;5037476;28;20186;-80
2022/04/07 04:24:05;;;;;;;5.30;3.10;;;9.90;99.90;;;;;;5037076;28;20230;-80
2022/04/07 04:26:31;;;;;;;9.97;2.77;;;9.90;99.90;;;;;;5056869;28;20548;-79
2022/04/07 04:28:56;;;;;;;3.07;2.40;;;9.90;99.90;;;;;;5038963;28;20269;-79
2022/04/07 04:31:24;;;;;;;3.73;2.47;;;9.90;99.90;;;;;;5038526;28;20176;-79
2022/04/07 04:33:53;;;;;;;9.37;2.77;;;9.90;99.90;;;;;;5038857;28;20177;-79
2022/04/07 04:36:19;;;;;;;5.17;2.10;;;9.90;99.90;;;;;;5038678;28;20178;-79
2022/04/07 04:38:45;;;;;;;4.23;2.20;;;9.90;99.90;;;;;;5037943;28;20177;-79
2022/04/07 04:41:11;;;;;;;7.90;2.40;;;9.90;99.90;;;;;;5036922;28;20243;-80
2022/04/07 04:43:36;;;;;;;4.30;2.03;;;9.90;99.90;;;;;;5041258;28;20181;-79
2022/04/07 04:46:02;;;;;;;5.30;2.40;;;10.00;99.90;;;;;;5042245;28;20707;-80
2022/04/07 04:48:28;;;;;;;4.80;2.00;;;10.00;99.90;;;;;;5043208;28;20549;-79
2022/04/07 04:50:55;;;;;;;6.30;2.00;;;10.10;99.90;;;;;;5041735;28;20192;-79
2022/04/07 04:53:22;;;;;;;6.40;2.20;;;10.00;99.90;;;;;;5043116;28;20173;-80
2022/04/07 04:55:48;;;;;;;6.67;1.67;;;10.00;99.90;;;;;;5042099;28;20260;-80
2022/04/07 04:58:14;;;;;;;10.87;1.77;;;10.00;99.90;;;;;;5041070;28;20177;-80
2022/04/07 05:00:40;;;;;;;8.23;2.03;;;10.00;99.90;;;;;;5042997;28;20209;-80
2022/04/07 05:03:06;;;;;;;3.93;1.90;;;10.00;99.90;;;;;;5041346;28;20661;-80
2022/04/07 05:05:32;;;;;;;11.77;1.83;;;10.00;99.90;;;;;;5041627;28;20201;-81
2022/04/07 05:07:57;;;;;;;9.83;2.00;;;9.90;99.90;;;;;;5043398;28;20178;-80
2022/04/07 05:10:24;;;;;;;7.93;2.00;;;10.00;99.90;;;;;;5044270;28;20247;-79
2022/04/07 05:12:54;;;;;;;5.13;1.63;;;10.00;99.90;;;;;;5044037;28;20178;-79
2022/04/07 05:15:20;;;;;;;5.37;1.80;;;10.00;99.90;;;;;;5041211;28;20317;-79
2022/04/07 05:17:52;;;;;;;11.53;1.77;;;10.00;99.90;;;;;;5042131;28;20194;-80
2022/04/07 05:20:18;;;;;;;6.27;1.80;;;10.00;99.90;;;;;;5039362;28;20740;-81
2022/04/07 05:22:45;;;;;;;9.17;2.30;;;10.00;99.90;;;;;;5037418;28;20224;-80
2022/04/07 05:25:11;;;;;;;8.97;1.90;;;10.10;99.90;;;;;;5037013;28;20692;-81
2022/04/07 05:27:37;;;;;;;6.73;2.17;;;10.20;99.90;;;;;;5036359;28;20189;-80
2022/04/07 05:30:05;;;;;;;3.23;1.97;;;10.10;99.90;;;;;;5036895;28;20627;-79
2022/04/07 05:32:31;;;;;;;8.27;2.00;;;10.10;99.90;;;;;;5039780;28;20179;-80
2022/04/07 05:34:56;;;;;;;4.80;2.27;;;10.10;99.90;;;;;;5042696;28;20217;-79
2022/04/07 05:37:24;;;;;;;6.83;2.20;;;10.20;99.90;;;;;;5040175;28;20177;-80
2022/04/07 05:39:51;;;;;;;7.10;2.10;;;10.20;99.90;;;;;;5037360;28;20293;-80
2022/04/07 05:42:17;;;;;;;6.67;2.57;;;10.20;99.90;;;;;;5036271;28;20238;-80
2022/04/07 05:44:43;;;;;;;4.17;2.03;;;10.20;99.90;;;;;;5036361;28;20557;-80
2022/04/07 05:47:09;;;;;;;5.97;2.10;;;10.20;99.90;;;;;;5035830;28;20185;-79
2022/04/07 05:49:35;;;;;;;5.27;1.83;;;10.30;99.90;;;;;;5034968;28;20197;-79
2022/04/07 05:52:03;;;;;;;6.67;1.60;;;10.30;99.90;;;;;;5034691;28;20186;-79
2022/04/07 05:54:29;;;;;;;6.83;1.50;;;10.30;99.90;;;;;;5034823;28;20174;-79
2022/04/07 05:56:54;;;;;;;1.67;1.30;;;10.30;99.90;;;;;;5034706;28;20202;-79
2022/04/07 05:59:20;;;;;;;2.43;1.30;;;10.20;99.90;;;;;;5034669;28;20205;-79
2022/04/07 06:01:46;;;;;;;1.37;1.10;;;10.10;99.90;;;;;;5035606;28;20177;-79
2022/04/07 06:04:11;;;;;;;2.27;1.30;;;10.00;99.90;;;;;;5035898;28;20259;-79
2022/04/07 06:06:37;;;;;;;1.67;1.40;;;10.00;99.90;;;;;;5036444;28;20181;-79
2022/04/07 06:09:03;;;;;;;5.63;1.60;;;9.90;99.90;;;;;;5035140;28;20207;-77
2022/04/07 06:11:29;;;;;;;5.27;1.70;;;9.80;99.90;;;;;;5035330;28;20176;-78
2022/04/07 06:13:54;;;;;;;5.70;2.20;;;9.70;99.90;;;;;;5055791;28;20197;-77
2022/04/07 06:16:20;;;;;;;1.83;1.70;;;9.50;99.90;;;;;;5053451;22;20166;-77
2022/04/07 06:18:46;;;;;;;3.77;1.90;;;9.50;99.90;;;;;;5029722;28;20207;-77
2022/04/07 06:21:11;;;;;;;3.67;2.30;;;9.40;99.90;;;;;;5035392;28;20249;-77
2022/04/07 06:23:37;;;;;;;5.13;3.07;;;9.30;99.90;;;;;;5034156;28;20178;-77
2022/04/07 06:26:02;;;;;;;3.93;2.80;;;9.30;99.90;;;;;;5035921;28;20205;-77
2022/04/07 06:28:28;;;;;;;6.90;3.10;;;9.30;99.90;;;;;;5035655;28;20185;-78
2022/04/07 06:30:54;;;;;;;5.00;3.00;;;9.30;99.90;;;;;;5059164;22;20174;-80
2022/04/07 06:33:21;;;;;;;5.13;3.90;;;9.30;99.90;;;;;;5055411;28;20172;-79
2022/04/07 06:35:50;;;;;;;6.23;4.23;;;9.30;99.90;;;;;;5038129;28;20173;-79
2022/04/07 06:38:16;;;;;;;8.50;4.60;;;9.10;99.90;;;;;;5055978;28;20203;-79
2022/04/07 06:40:42;;;;;;;5.67;3.97;;;9.00;99.90;;;;;;5056076;28;20612;-80
2022/04/07 06:43:07;;;;;;;6.30;4.17;;;9.00;99.90;;;;;;5037456;28;20183;-80
2022/04/07 06:45:33;;;;;;;8.17;4.43;;;9.00;99.90;;;;;;5038308;28;20212;-79
2022/04/07 06:47:58;;;;;;;6.40;3.97;;;9.10;99.90;;;;;;5040718;28;20695;-80
2022/04/07 06:50:25;;;;;;;7.23;3.60;;;9.10;99.90;;;;;;5057586;28;20169;-79
2022/04/07 06:52:52;;;;;;;4.87;3.30;;;9.10;99.90;;;;;;5040061;28;20253;-79
2022/04/07 06:55:17;;;;;;;4.47;3.07;;;9.20;99.90;;;;;;5056642;28;20181;-79
2022/04/07 06:57:50;;;;;;;5.23;2.67;;;9.20;99.90;;;;;;5056348;28;20514;-79
2022/04/07 07:00:18;;;;;;;2.70;2.50;;;9.40;99.90;;;;;;5037925;28;20174;-79
2022/04/07 07:02:53;;;;;;;4.03;2.80;;;9.40;99.90;;;;;;5055298;28;20185;-79
2022/04/07 07:05:20;;;;;;;4.40;2.40;;;9.40;99.90;;;;;;5056556;28;20197;-79
2022/04/07 07:07:46;;;;;;;3.23;2.10;;;9.40;99.90;;;;;;5051889;28;20165;-79
2022/04/07 07:10:12;;;;;;;3.73;2.17;;;9.40;99.90;;;;;;5054314;28;20551;-78
2022/04/07 07:12:38;;;;;;;7.13;2.30;;;9.30;99.90;;;;;;5035785;28;20291;-79
2022/04/07 07:15:04;;;;;;;2.57;2.00;;;9.30;99.90;;;;;;5053652;28;20272;-80
2022/04/07 07:17:33;;;;;;;2.43;2.33;;;9.30;99.90;;;;;;5052525;28;20205;-79
2022/04/07 07:20:12;;;;;;;2.23;2.03;;;9.40;99.90;;;;;;5036821;28;20184;-80
2022/04/07 07:22:39;;;;;;;2.10;1.90;;;9.30;99.90;;;;;;5050759;28;20242;-79
2022/04/07 07:25:06;;;;;;;1.93;1.73;;;9.30;99.90;;;;;;5053350;28;20189;-79
2022/04/07 07:27:38;;;;;;;8.03;1.87;;;9.30;99.90;;;;;;5034720;28;20176;-80
2022/04/07 07:30:08;;;;;;;1.70;1.60;;;9.20;99.90;;;;;;5054143;28;20180;-80
2022/04/07 07:32:34;;;;;;;3.50;1.43;;;9.20;99.90;;;;;;5053891;28;20293;-80
2022/04/07 07:34:59;;;;;;;1.73;1.40;;;9.10;99.90;;;;;;5035900;28;20281;-79
2022/04/07 07:37:25;;;;;;;1.70;1.30;;;9.10;99.90;;;;;;5020834;28;20610;-81
2022/04/07 07:39:50;;;;;;;2.10;1.20;;;9.10;99.90;;;;;;5044189;28;20241;-80
2022/04/07 07:42:16;;;;;;;2.00;1.30;;;9.10;99.90;;;;;;5042941;28;20681;-80
2022/04/07 07:44:42;;;;;;;2.13;1.50;;;9.10;99.90;;;;;;5025468;28;20599;-79
2022/04/07 07:47:07;;;;;;;2.70;1.40;;;9.10;99.90;;;;;;5044773;28;20176;-80
2022/04/07 07:49:33;;;;;;;1.23;0.90;;;9.10;99.90;;;;;;5025043;28;20166;-79
2022/04/07 07:51:58;;;;;;;1.80;1.40;;;9.10;99.90;;;;;;5053056;28;20239;-80
2022/04/07 07:54:24;;;;;;;1.37;1.10;;;9.00;99.90;;;;;;5053140;28;20179;-80
2022/04/07 07:56:49;;;;;;;4.43;1.30;;;9.00;99.90;;;;;;5053827;28;20235;-80
2022/04/07 07:59:15;;;;;;;3.30;1.20;;;9.00;99.90;;;;;;5053672;28;20188;-80
2022/04/07 08:01:43;;;;;;;5.00;1.10;;;9.00;99.90;;;;;;5035496;28;20200;-80
2022/04/07 08:04:09;;;;;;;3.53;1.53;;;9.00;99.90;;;;;;5025154;28;20181;-79
2022/04/07 08:06:34;;;;;;;5.63;1.90;;;9.00;99.90;;;;;;5026706;28;20169;-79
2022/04/07 08:09:00;;;;;;;6.00;2.20;;;9.10;99.90;;;;;;5052036;28;20166;-79
2022/04/07 08:11:25;;;;;;;4.57;2.77;;;9.10;99.90;;;;;;5034108;28;20198;-79
2022/04/07 08:13:51;;;;;;;2.30;2.10;;;9.10;99.90;;;;;;5053789;28;20180;-78
2022/04/07 08:16:16;;;;;;;10.10;2.30;;;9.10;99.90;;;;;;5054290;28;20173;-77
2022/04/07 08:18:43;;;;;;;2.67;2.27;;;9.20;99.90;;;;;;5053853;28;20169;-79
2022/04/07 08:21:08;;;;;;;3.23;2.40;;;9.20;99.90;;;;;;5035913;28;20692;-79
2022/04/07 08:23:34;;;;;;;3.73;2.80;;;9.10;99.90;;;;;;5051474;28;20178;-79
2022/04/07 08:25:59;;;;;;;5.80;2.80;;;9.10;99.90;;;;;;5053194;28;20209;-79
2022/04/07 08:28:25;;;;;;;4.77;3.00;;;9.10;99.90;;;;;;5053590;28;20162;-78
2022/04/07 08:30:51;;;;;;;5.27;2.90;;;9.00;99.90;;;;;;5036744;28;20172;-79
2022/04/07 08:33:16;;;;;;;3.30;3.00;;;9.00;99.90;;;;;;5053651;28;20184;-79
2022/04/07 08:35:42;;;;;;;5.30;3.00;;;9.00;99.90;;;;;;5053577;28;20257;-79
2022/04/07 08:38:09;;;;;;;4.07;3.10;;;9.00;99.90;;;;;;5051056;28;20656;-78
2022/04/07 08:40:36;;;;;;;8.43;3.00;;;8.90;99.90;;;;;;5053248;28;20641;-78
2022/04/07 08:43:01;;;;;;;4.43;3.00;;;8.90;99.90;;;;;;5053176;28;20193;-79
2022/04/07 08:45:29;;;;;;;4.43;2.80;;;8.90;99.90;;;;;;5053986;28;20208;-79
2022/04/07 08:47:56;;;;;;;3.43;3.13;;;9.00;99.90;;;;;;5054092;28;20261;-78
2022/04/07 08:50:22;;;;;;;6.23;2.43;;;9.00;99.90;;;;;;5054435;28;20251;-79
2022/04/07 08:52:48;;;;;;;4.13;2.83;;;9.10;99.90;;;;;;5054050;28;20205;-78
2022/04/07 08:55:14;;;;;;;2.37;2.17;;;9.10;99.90;;;;;;5053388;28;20649;-79
2022/04/07 08:57:41;;;;;;;5.57;2.50;;;9.10;99.90;;;;;;5054185;28;20583;-79
2022/04/07 09:00:08;;;;;;;3.63;2.10;;;9.10;99.90;;;;;;5054315;28;20663;-79
2022/04/07 09:02:33;;;;;;;3.30;2.07;;;9.20;99.90;;;;;;5049014;28;20199;-79
2022/04/07 09:04:59;;;;;;;2.30;2.03;;;9.20;99.90;;;;;;5048326;28;20275;-79
2022/04/07 09:07:32;;;;;;;4.43;2.07;;;9.20;99.90;;;;;;5053783;28;20168;-79
2022/04/07 09:10:00;;;;;;;4.80;2.00;;;9.30;99.90;;;;;;5036610;28;20208;-79
2022/04/07 09:12:25;;;;;;;2.20;2.07;;;9.30;99.90;;;;;;5025563;28;20184;-79
2022/04/07 09:14:56;;;;;;;3.03;1.47;;;9.30;99.90;;;;;;5045469;28;20239;-79
2022/04/07 09:17:21;;;;;;;1.37;0.63;;;8.60;99.90;;;;;;5051821;28;20204;-80
2022/04/07 09:19:50;;;;;;;1.30;0.57;;;6.90;99.90;;;;;;5053043;28;20224;-80
2022/04/07 09:22:15;;;;;;;1.10;0.70;;;5.60;99.90;;;;;;5051567;28;20207;-79
2022/04/07 09:24:42;;;;;;;0.53;0.53;;;5.30;99.90;;;;;;5044427;28;20814;-79
2022/04/07 09:27:10;;;;;;;1.67;0.70;;;5.40;99.90;;;;;;5045159;28;20168;-79
2022/04/07 09:29:39;;;;;;;3.07;0.90;;;5.50;99.90;;;;;;5042076;28;20175;-77
2022/04/07 09:32:19;;;;;;;1.10;0.70;;;5.60;99.90;;;;;;5050882;28;20208;-77
2022/04/07 09:34:46;;;;;;;1.80;0.60;;;5.70;99.90;;;;;;5031563;28;20172;-78
2022/04/07 09:37:11;;;;;;;3.93;1.67;;;5.80;99.90;;;;;;5051608;28;20179;-78
2022/04/07 09:39:39;;;;;;;2.47;0.50;;;5.90;99.90;;;;;;5033666;28;20166;-77
2022/04/07 09:42:23;;;;;;;5.17;0.83;;;6.00;99.90;;;;;;5033388;28;20232;-77
2022/04/07 09:44:57;;;;;;;1.30;0.63;;;6.10;99.90;;;;;;5051383;28;20197;-77
2022/04/07 09:47:23;;;;;;;1.37;0.70;;;6.20;99.90;;;;;;5049793;28;20166;-77
2022/04/07 09:49:49;;;;;;;2.23;0.80;;;6.20;99.90;;;;;;5050788;28;20209;-78
2022/04/07 09:52:21;;;;;;;1.00;0.80;;;6.50;99.90;;;;;;5032550;28;20227;-78
2022/04/07 09:54:50;;;;;;;1.30;0.73;;;6.60;99.90;;;;;;5051138;28;20165;-78
2022/04/07 09:57:18;;;;;;;2.43;0.80;;;6.90;99.90;;;;;;5051609;28;20168;-77
2022/04/07 09:59:45;;;;;;;1.17;0.90;;;7.00;99.90;;;;;;5051799;28;20593;-77
2022/04/07 10:02:11;;;;;;;1.50;0.80;;;7.30;99.90;;;;;;5051006;28;20210;-78
2022/04/07 10:04:37;;;;;;;0.93;0.80;;;7.20;99.90;;;;;;5051352;28;20203;-78
2022/04/07 10:07:05;;;;;;;0.40;0.40;;;7.20;99.90;;;;;;5051265;28;20705;-78
2022/04/07 10:09:33;;;;;;;0.53;0.53;;;7.30;99.90;;;;;;5050933;28;20171;-78
2022/04/07 10:11:59;;;;;;;1.37;0.63;;;7.50;99.90;;;;;;5050627;28;20181;-78
2022/04/07 10:14:28;;;;;;;3.37;0.80;;;8.00;99.90;;;;;;5051345;28;20167;-78
2022/04/07 10:16:53;;;;;;;4.23;1.00;;;8.70;99.90;;;;;;5051245;28;20252;-78
2022/04/07 10:19:32;;;;;;;0.60;0.60;;;9.30;99.90;;;;;;5051627;28;20276;-78
2022/04/07 10:22:30;;;;;;;0.63;0.63;;;9.50;99.90;;;;;;5051316;28;20664;-79
2022/04/07 10:25:03;;;;;;;1.83;0.53;;;9.60;99.90;;;;;;5049064;28;20194;-78
2022/04/07 10:27:30;;;;;;;1.53;0.80;;;9.50;99.90;;;;;;5027811;28;20171;-78
2022/04/07 10:30:12;;;;;;;0.93;0.70;;;9.50;99.90;;;;;;5051023;28;20215;-78
2022/04/07 10:32:40;;;;;;;1.00;0.73;;;10.00;99.90;;;;;;5049957;28;20211;-78
2022/04/07 10:35:08;;;;;;;0.87;0.87;;;10.20;99.90;;;;;;5050077;28;20783;-77
2022/04/07 10:37:45;;;;;;;1.00;0.90;;;10.20;99.90;;;;;;5050962;28;20177;-79
2022/04/07 10:40:36;;;;;;;2.63;0.90;;;10.00;99.90;;;;;;5050533;28;20170;-78
2022/04/07 10:43:10;;;;;;;1.07;0.80;;;9.90;99.90;;;;;;5048907;28;20194;-78
2022/04/07 10:45:40;;;;;;;1.30;0.80;;;9.80;99.90;;;;;;5049317;28;20217;-78
2022/04/07 10:48:30;;;;;;;1.73;0.73;;;10.40;99.90;;;;;;5048964;28;20169;-78
2022/04/07 10:51:07;;;;;;;0.87;0.80;;;10.50;99.90;;;;;;5032158;28;20181;-79
2022/04/07 10:53:34;;;;;;;3.13;0.83;;;10.20;99.90;;;;;;5033042;28;20176;-79
2022/04/07 10:56:35;;;;;;;3.97;1.30;;;9.90;99.90;;;;;;5051127;28;20179;-79
2022/04/07 10:59:19;;;;;;;2.80;1.07;;;10.00;99.90;;;;;;4994128;28;20182;-79
2022/04/07 11:01:55;;;;;;;3.73;1.40;;;10.20;99.90;;;;;;5052743;28;20212;-79
2022/04/07 11:04:23;;;;;;;2.93;1.00;;;11.00;99.90;;;;;;5054554;28;20203;-79
2022/04/07 11:07:19;;;;;;;4.03;2.37;;;11.30;99.90;;;;;;5036779;28;20171;-79
2022/04/07 11:10:03;;;;;;;1.07;1.00;;;11.10;99.90;;;;;;5055216;28;20227;-79
2022/04/07 11:12:43;;;;;;;5.43;1.20;;;10.80;99.90;;;;;;5035529;28;20557;-79
2022/04/07 11:15:30;;;;;;;6.83;1.07;;;11.00;99.90;;;;;;5054314;28;20165;-79
2022/04/07 11:18:02;;;;;;;2.53;1.10;;;11.90;99.90;;;;;;5036846;28;20180;-79
2022/04/07 11:20:28;;;;;;;2.73;0.80;;;11.60;99.90;;;;;;5054591;28;20649;-79
2022/04/07 11:23:08;;;;;;;4.37;1.13;;;11.60;99.90;;;;;;5052438;28;20196;-79
2022/04/07 11:25:42;;;;;;;1.87;1.00;;;11.40;99.90;;;;;;5054345;28;20203;-79
2022/04/07 11:28:17;;;;;;;3.70;1.23;;;11.40;99.90;;;;;;5054280;28;20656;-79
2022/04/07 11:30:54;;;;;;;1.00;1.00;;;11.10;99.90;;;;;;5036238;28;20165;-79
2022/04/07 11:33:20;;;;;;;1.93;1.37;;;11.70;99.90;;;;;;5053627;28;20670;-79
2022/04/07 11:36:01;;;;;;;3.93;1.30;;;11.90;99.90;;;;;;5036228;28;20178;-79
2022/04/07 11:38:45;;;;;;;1.47;1.10;;;11.60;99.90;;;;;;5054191;28;20176;-79
2022/04/07 11:41:13;;;;;;;5.47;1.77;;;11.20;99.90;;;;;;5035520;28;20197;-78
2022/04/07 11:43:41;;;;;;;7.50;1.53;;;10.90;99.90;;;;;;5053599;28;20265;-78
2022/04/07 11:46:07;;;;;;;3.47;1.10;;;10.70;99.90;;;;;;5053826;28;20207;-78
2022/04/07 11:48:34;;;;;;;5.60;1.40;;;10.50;99.90;;;;;;5052670;28;20165;-79
2022/04/07 11:51:08;;;;;;;5.23;1.50;;;10.50;99.90;;;;;;5053665;28;20169;-79
2022/04/07 11:53:34;;;;;;;4.40;1.43;;;11.00;99.90;;;;;;5053792;28;20339;-79
2022/04/07 11:56:16;;;;;;;2.53;1.30;;;11.30;99.90;;;;;;5053322;28;20659;-78
2022/04/07 11:58:42;;;;;;;5.20;1.73;;;11.20;99.90;;;;;;5051481;28;20177;-78
2022/04/07 12:01:11;;;;;;;3.50;1.20;;;11.00;99.90;;;;;;5053161;28;20197;-79
2022/04/07 12:03:40;;;;;;;2.73;1.00;;;11.10;99.90;;;;;;5053587;28;20169;-78
2022/04/07 12:06:06;;;;;;;5.50;1.20;;;12.50;99.90;;;;;;5053586;28;20223;-79
2022/04/07 12:08:32;;;;;;;1.60;1.00;;;13.80;99.90;;;;;;5035658;28;20174;-79
2022/04/07 12:10:58;;;;;;;7.67;1.27;;;14.80;99.90;;;;;;5035171;28;20176;-80
2022/04/07 12:13:24;;;;;;;5.87;1.40;;;14.60;99.90;;;;;;5053277;28;20174;-79
2022/04/07 12:15:50;;;;;;;4.80;1.23;;;14.20;99.90;;;;;;5035574;28;20555;-79
2022/04/07 12:18:25;;;;;;;5.17;1.30;;;13.30;99.90;;;;;;5051289;28;20182;-79
2022/04/07 12:20:58;;;;;;;4.90;1.17;;;12.40;99.90;;;;;;5053425;28;20178;-78
2022/04/07 12:23:26;;;;;;;7.20;2.40;;;11.80;99.90;;;;;;5051848;28;20212;-78
2022/04/07 12:26:00;;;;;;;7.90;1.83;;;11.60;99.90;;;;;;5034912;28;20198;-78
2022/04/07 12:28:39;;;;;;;5.00;1.20;;;11.80;99.00;;;;;;5035728;28;20633;-78
2022/04/07 12:33:40;;;;;;;3.20;1.13;;;12.00;98.30;;;;;;5011913;28;20266;-77
2022/04/07 12:36:08;;;;;;;6.53;1.27;;;12.40;99.90;;;;;;5013769;28;20170;-77
2022/04/07 12:38:34;;;;;;;8.93;1.47;;;12.50;98.90;;;;;;5014577;28;20167;-77
2022/04/07 12:41:11;;;;;;;7.30;1.10;;;12.60;97.30;;;;;;4996398;28;20175;-77
2022/04/07 12:43:50;;;;;;;5.77;1.20;;;12.90;97.40;;;;;;4976776;28;20180;-77
2022/04/07 12:46:20;;;;;;;3.30;1.43;;;12.70;96.50;;;;;;4976689;28;20227;-77
2022/04/07 12:49:05;;;;;;;4.23;1.40;;;12.20;97.00;;;;;;4994307;28;20172;-78
2022/04/07 12:51:36;;;;;;;4.10;1.10;;;12.00;98.70;;;;;;4975407;28;20196;-77
2022/04/07 12:54:09;;;;;;;9.93;1.70;;;11.20;99.90;;;;;;4993481;28;20187;-78
2022/04/07 12:56:36;;;;;;;9.57;1.43;;;11.60;99.90;;;;;;4975690;28;20230;-79
2022/04/07 12:59:09;;;;;;;10.90;1.70;;;11.90;99.90;;;;;;4990625;28;20656;-78
2022/04/07 13:01:35;;;;;;;9.90;1.60;;;11.90;99.90;;;;;;4993706;28;20195;-78